sensor_id;sensor_type;location;lat;lon;timestamp;P1;durP1;ratioP1;P2;durP2;ratioP2
50012;SDS011;35901;48.694;9.476;2023-04-29T00:02:00;23.23;;;10.70;;
50012;SDS011;35901;48.694;9.476;2023-04-29T00:04:26;9.47;;;8.57;;
50012;SDS011;35901;48.694;9.476;2023-04-29T00:06:52;9.47;;;8.57;;
50012;SDS011;35901;48.694;9.476;2023-04-29T00:09:18;8.87;;;7.97;;
50012;SDS011;35901;48.694;9.476;2023-04-29T00:11:43;9.70;;;8.80;;
50012;SDS011;35901;48.694;9.476;2023-04-29T00:14:11;9.60;;;8.63;;
50012;SDS011;35901;48.694;9.476;2023-04-29T00:16:36;16.10;;;9.57;;
50012;SDS011;35901;48.694;9.476;2023-04-29T00:19:02;13.57;;;8.50;;
50012;SDS011;35901;48.694;9.476;2023-04-29T00:21:28;98.70;;;12.00;;
50012;SDS011;35901;48.694;9.476;2023-04-29T00:23:53;77.73;;;10.17;;
50012;SDS011;35901;48.694;9.476;2023-04-29T00:26:20;74.87;;;9.23;;
50012;SDS011;35901;48.694;9.476;2023-04-29T00:28:47;36.77;;;7.70;;
50012;SDS011;35901;48.694;9.476;2023-04-29T00:31:12;92.47;;;10.53;;
50012;SDS011;35901;48.694;9.476;2023-04-29T00:33:38;91.47;;;9.93;;
50012;SDS011;35901;48.694;9.476;2023-04-29T00:36:05;174.37;;;15.37;;
50012;SDS011;35901;48.694;9.476;2023-04-29T00:38:31;9.90;;;8.97;;
50012;SDS011;35901;48.694;9.476;2023-04-29T00:40:57;8.67;;;7.90;;
50012;SDS011;35901;48.694;9.476;2023-04-29T00:43:22;8.87;;;8.07;;
50012;SDS011;35901;48.694;9.476;2023-04-29T00:45:48;10.70;;;9.67;;
50012;SDS011;35901;48.694;9.476;2023-04-29T00:48:14;11.93;;;10.73;;
50012;SDS011;35901;48.694;9.476;2023-04-29T00:50:40;11.23;;;10.13;;
50012;SDS011;35901;48.694;9.476;2023-04-29T00:53:06;11.23;;;10.10;;
50012;SDS011;35901;48.694;9.476;2023-04-29T00:55:33;11.90;;;9.97;;
50012;SDS011;35901;48.694;9.476;2023-04-29T00:58:00;10.43;;;9.43;;
50012;SDS011;35901;48.694;9.476;2023-04-29T01:00:28;10.63;;;9.50;;
50012;SDS011;35901;48.694;9.476;2023-04-29T01:02:55;9.93;;;8.97;;
50012;SDS011;35901;48.694;9.476;2023-04-29T01:05:23;10.73;;;9.60;;
50012;SDS011;35901;48.694;9.476;2023-04-29T01:13:36;10.53;;;9.57;;
50012;SDS011;35901;48.694;9.476;2023-04-29T01:16:10;9.47;;;8.57;;
50012;SDS011;35901;48.694;9.476;2023-04-29T01:18:53;8.97;;;8.17;;
50012;SDS011;35901;48.694;9.476;2023-04-29T01:21:27;9.80;;;8.80;;
50012;SDS011;35901;48.694;9.476;2023-04-29T01:23:55;11.07;;;8.50;;
50012;SDS011;35901;48.694;9.476;2023-04-29T01:26:22;9.40;;;8.50;;
50012;SDS011;35901;48.694;9.476;2023-04-29T01:29:09;10.90;;;9.40;;
50012;SDS011;35901;48.694;9.476;2023-04-29T01:32:11;10.50;;;9.47;;
50012;SDS011;35901;48.694;9.476;2023-04-29T01:37:36;9.00;;;8.10;;
50012;SDS011;35901;48.694;9.476;2023-04-29T01:43:06;9.77;;;8.77;;
50012;SDS011;35901;48.694;9.476;2023-04-29T01:45:37;9.70;;;8.47;;
50012;SDS011;35901;48.694;9.476;2023-04-29T01:48:07;9.23;;;8.23;;
50012;SDS011;35901;48.694;9.476;2023-04-29T01:50:33;9.97;;;8.00;;
50012;SDS011;35901;48.694;9.476;2023-04-29T01:53:14;7.90;;;7.20;;
50012;SDS011;35901;48.694;9.476;2023-04-29T01:55:40;8.60;;;7.53;;
50012;SDS011;35901;48.694;9.476;2023-04-29T01:58:17;8.67;;;7.87;;
50012;SDS011;35901;48.694;9.476;2023-04-29T02:01:01;8.70;;;7.60;;
50012;SDS011;35901;48.694;9.476;2023-04-29T02:03:30;8.30;;;7.50;;
50012;SDS011;35901;48.694;9.476;2023-04-29T02:05:57;8.60;;;7.17;;
50012;SDS011;35901;48.694;9.476;2023-04-29T02:08:23;8.63;;;7.80;;
50012;SDS011;35901;48.694;9.476;2023-04-29T02:10:53;7.87;;;7.17;;
50012;SDS011;35901;48.694;9.476;2023-04-29T02:13:33;8.67;;;7.87;;
50012;SDS011;35901;48.694;9.476;2023-04-29T02:16:09;7.90;;;7.20;;
50012;SDS011;35901;48.694;9.476;2023-04-29T02:18:37;6.90;;;6.30;;
50012;SDS011;35901;48.694;9.476;2023-04-29T02:21:05;19.63;;;6.40;;
50012;SDS011;35901;48.694;9.476;2023-04-29T02:23:33;111.20;;;8.77;;
50012;SDS011;35901;48.694;9.476;2023-04-29T02:26:00;46.33;;;6.17;;
50012;SDS011;35901;48.694;9.476;2023-04-29T02:28:26;47.93;;;7.23;;
50012;SDS011;35901;48.694;9.476;2023-04-29T02:30:51;75.23;;;8.17;;
50012;SDS011;35901;48.694;9.476;2023-04-29T02:33:18;35.00;;;7.60;;
50012;SDS011;35901;48.694;9.476;2023-04-29T02:35:44;47.30;;;9.97;;
50012;SDS011;35901;48.694;9.476;2023-04-29T02:38:10;20.30;;;6.50;;
50012;SDS011;35901;48.694;9.476;2023-04-29T02:40:42;34.63;;;7.80;;
50012;SDS011;35901;48.694;9.476;2023-04-29T02:43:09;72.70;;;9.20;;
50012;SDS011;35901;48.694;9.476;2023-04-29T02:45:36;36.27;;;7.03;;
50012;SDS011;35901;48.694;9.476;2023-04-29T02:48:03;6.27;;;4.63;;
50012;SDS011;35901;48.694;9.476;2023-04-29T02:50:29;26.07;;;5.30;;
50012;SDS011;35901;48.694;9.476;2023-04-29T02:52:55;25.63;;;5.10;;
50012;SDS011;35901;48.694;9.476;2023-04-29T02:55:21;11.63;;;4.33;;
50012;SDS011;35901;48.694;9.476;2023-04-29T02:57:47;63.40;;;7.00;;
50012;SDS011;35901;48.694;9.476;2023-04-29T03:00:13;16.87;;;5.23;;
50012;SDS011;35901;48.694;9.476;2023-04-29T03:02:39;16.57;;;5.37;;
50012;SDS011;35901;48.694;9.476;2023-04-29T03:05:05;10.27;;;5.43;;
50012;SDS011;35901;48.694;9.476;2023-04-29T03:07:31;12.70;;;5.87;;
50012;SDS011;35901;48.694;9.476;2023-04-29T03:09:57;29.50;;;6.27;;
50012;SDS011;35901;48.694;9.476;2023-04-29T03:12:23;19.40;;;5.70;;
50012;SDS011;35901;48.694;9.476;2023-04-29T03:14:49;12.87;;;5.03;;
50012;SDS011;35901;48.694;9.476;2023-04-29T03:17:15;12.27;;;5.60;;
50012;SDS011;35901;48.694;9.476;2023-04-29T03:19:41;10.10;;;4.60;;
50012;SDS011;35901;48.694;9.476;2023-04-29T03:22:07;8.50;;;4.33;;
50012;SDS011;35901;48.694;9.476;2023-04-29T03:24:36;5.00;;;4.50;;
50012;SDS011;35901;48.694;9.476;2023-04-29T03:27:02;12.30;;;5.10;;
50012;SDS011;35901;48.694;9.476;2023-04-29T03:29:29;10.27;;;5.20;;
50012;SDS011;35901;48.694;9.476;2023-04-29T03:31:55;11.80;;;5.33;;
50012;SDS011;35901;48.694;9.476;2023-04-29T03:34:21;6.63;;;4.73;;
50012;SDS011;35901;48.694;9.476;2023-04-29T03:37:00;8.87;;;5.50;;
50012;SDS011;35901;48.694;9.476;2023-04-29T03:39:27;11.80;;;5.73;;
50012;SDS011;35901;48.694;9.476;2023-04-29T03:41:57;27.40;;;6.17;;
50012;SDS011;35901;48.694;9.476;2023-04-29T03:44:24;10.30;;;5.63;;
50012;SDS011;35901;48.694;9.476;2023-04-29T03:46:50;13.40;;;6.47;;
50012;SDS011;35901;48.694;9.476;2023-04-29T03:49:16;10.67;;;5.83;;
50012;SDS011;35901;48.694;9.476;2023-04-29T03:51:42;12.93;;;6.73;;
50012;SDS011;35901;48.694;9.476;2023-04-29T03:54:13;7.90;;;5.60;;
50012;SDS011;35901;48.694;9.476;2023-04-29T03:56:38;12.60;;;6.20;;
50012;SDS011;35901;48.694;9.476;2023-04-29T03:59:05;12.07;;;6.07;;
50012;SDS011;35901;48.694;9.476;2023-04-29T04:01:31;11.23;;;5.20;;
50012;SDS011;35901;48.694;9.476;2023-04-29T04:03:57;9.27;;;5.83;;
50012;SDS011;35901;48.694;9.476;2023-04-29T04:06:23;8.27;;;5.73;;
50012;SDS011;35901;48.694;9.476;2023-04-29T04:08:50;7.07;;;4.80;;
50012;SDS011;35901;48.694;9.476;2023-04-29T04:11:19;7.60;;;4.80;;
50012;SDS011;35901;48.694;9.476;2023-04-29T04:14:11;15.83;;;5.13;;
50012;SDS011;35901;48.694;9.476;2023-04-29T04:16:37;13.13;;;5.50;;
50012;SDS011;35901;48.694;9.476;2023-04-29T04:19:03;16.57;;;5.33;;
50012;SDS011;35901;48.694;9.476;2023-04-29T04:21:33;8.63;;;4.97;;
50012;SDS011;35901;48.694;9.476;2023-04-29T04:24:04;10.57;;;5.53;;
50012;SDS011;35901;48.694;9.476;2023-04-29T04:26:30;10.57;;;4.83;;
50012;SDS011;35901;48.694;9.476;2023-04-29T04:29:16;14.87;;;5.10;;
50012;SDS011;35901;48.694;9.476;2023-04-29T04:31:48;5.00;;;4.50;;
50012;SDS011;35901;48.694;9.476;2023-04-29T04:34:15;9.27;;;4.33;;
50012;SDS011;35901;48.694;9.476;2023-04-29T04:36:41;10.20;;;4.60;;
50012;SDS011;35901;48.694;9.476;2023-04-29T04:39:07;4.20;;;3.80;;
50012;SDS011;35901;48.694;9.476;2023-04-29T04:41:33;8.77;;;4.90;;
50012;SDS011;35901;48.694;9.476;2023-04-29T04:44:00;6.63;;;4.17;;
50012;SDS011;35901;48.694;9.476;2023-04-29T04:46:37;6.83;;;4.13;;
50012;SDS011;35901;48.694;9.476;2023-04-29T04:49:28;7.53;;;4.77;;
50012;SDS011;35901;48.694;9.476;2023-04-29T04:51:54;6.20;;;4.47;;
50012;SDS011;35901;48.694;9.476;2023-04-29T04:54:20;8.13;;;5.03;;
50012;SDS011;35901;48.694;9.476;2023-04-29T04:56:50;8.07;;;4.97;;
50012;SDS011;35901;48.694;9.476;2023-04-29T04:59:16;10.70;;;5.27;;
50012;SDS011;35901;48.694;9.476;2023-04-29T05:01:41;7.53;;;4.97;;
50012;SDS011;35901;48.694;9.476;2023-04-29T05:04:07;9.80;;;5.40;;
50012;SDS011;35901;48.694;9.476;2023-04-29T05:06:33;12.43;;;5.10;;
50012;SDS011;35901;48.694;9.476;2023-04-29T05:08:59;12.37;;;5.47;;
50012;SDS011;35901;48.694;9.476;2023-04-29T05:11:25;13.33;;;6.13;;
50012;SDS011;35901;48.694;9.476;2023-04-29T05:14:07;20.77;;;5.90;;
50012;SDS011;35901;48.694;9.476;2023-04-29T05:16:32;7.93;;;4.40;;
50012;SDS011;35901;48.694;9.476;2023-04-29T05:18:58;11.37;;;5.60;;
50012;SDS011;35901;48.694;9.476;2023-04-29T05:21:28;15.93;;;6.10;;
50012;SDS011;35901;48.694;9.476;2023-04-29T05:23:56;9.47;;;5.93;;
50012;SDS011;35901;48.694;9.476;2023-04-29T05:26:22;9.87;;;5.20;;
50012;SDS011;35901;48.694;9.476;2023-04-29T05:28:50;14.87;;;6.23;;
50012;SDS011;35901;48.694;9.476;2023-04-29T05:31:17;8.80;;;6.07;;
50012;SDS011;35901;48.694;9.476;2023-04-29T05:33:43;11.60;;;5.10;;
50012;SDS011;35901;48.694;9.476;2023-04-29T05:36:09;15.43;;;6.47;;
50012;SDS011;35901;48.694;9.476;2023-04-29T05:38:34;11.33;;;6.07;;
50012;SDS011;35901;48.694;9.476;2023-04-29T05:41:04;12.73;;;5.80;;
50012;SDS011;35901;48.694;9.476;2023-04-29T05:43:43;15.00;;;6.80;;
50012;SDS011;35901;48.694;9.476;2023-04-29T05:46:12;54.20;;;9.97;;
50012;SDS011;35901;48.694;9.476;2023-04-29T05:48:37;15.13;;;8.00;;
50012;SDS011;35901;48.694;9.476;2023-04-29T05:51:03;17.83;;;9.10;;
50012;SDS011;35901;48.694;9.476;2023-04-29T05:53:30;18.20;;;9.37;;
50012;SDS011;35901;48.694;9.476;2023-04-29T05:55:57;26.53;;;11.70;;
50012;SDS011;35901;48.694;9.476;2023-04-29T05:58:23;28.63;;;12.70;;
50012;SDS011;35901;48.694;9.476;2023-04-29T06:00:50;16.53;;;10.77;;
50012;SDS011;35901;48.694;9.476;2023-04-29T06:03:20;18.93;;;10.60;;
50012;SDS011;35901;48.694;9.476;2023-04-29T06:05:50;16.17;;;11.00;;
50012;SDS011;35901;48.694;9.476;2023-04-29T06:08:51;13.07;;;10.57;;
50012;SDS011;35901;48.694;9.476;2023-04-29T06:11:22;15.37;;;11.03;;
50012;SDS011;35901;48.694;9.476;2023-04-29T06:13:47;14.57;;;11.13;;
50012;SDS011;35901;48.694;9.476;2023-04-29T06:16:13;12.00;;;10.80;;
50012;SDS011;35901;48.694;9.476;2023-04-29T06:18:39;12.50;;;10.20;;
50012;SDS011;35901;48.694;9.476;2023-04-29T06:21:05;10.30;;;9.30;;
50012;SDS011;35901;48.694;9.476;2023-04-29T06:23:31;10.60;;;9.57;;
50012;SDS011;35901;48.694;9.476;2023-04-29T06:25:59;11.60;;;9.90;;
50012;SDS011;35901;48.694;9.476;2023-04-29T06:28:25;12.07;;;10.80;;
50012;SDS011;35901;48.694;9.476;2023-04-29T06:30:52;12.20;;;11.00;;
50012;SDS011;35901;48.694;9.476;2023-04-29T06:33:18;10.37;;;9.33;;
50012;SDS011;35901;48.694;9.476;2023-04-29T06:35:44;8.70;;;8.00;;
50012;SDS011;35901;48.694;9.476;2023-04-29T06:38:39;8.70;;;7.97;;
50012;SDS011;35901;48.694;9.476;2023-04-29T06:41:30;6.87;;;6.37;;
50012;SDS011;35901;48.694;9.476;2023-04-29T06:44:15;6.30;;;5.80;;
50012;SDS011;35901;48.694;9.476;2023-04-29T06:47:05;5.60;;;5.20;;
50012;SDS011;35901;48.694;9.476;2023-04-29T06:49:41;6.67;;;6.07;;
50012;SDS011;35901;48.694;9.476;2023-04-29T06:52:09;5.80;;;5.30;;
50012;SDS011;35901;48.694;9.476;2023-04-29T06:54:35;5.00;;;4.60;;
50012;SDS011;35901;48.694;9.476;2023-04-29T06:57:01;4.50;;;4.20;;
50012;SDS011;35901;48.694;9.476;2023-04-29T06:59:28;4.60;;;4.30;;
50012;SDS011;35901;48.694;9.476;2023-04-29T07:01:53;4.57;;;4.17;;
50012;SDS011;35901;48.694;9.476;2023-04-29T07:04:19;4.03;;;3.50;;
50012;SDS011;35901;48.694;9.476;2023-04-29T07:06:46;3.70;;;3.40;;
50012;SDS011;35901;48.694;9.476;2023-04-29T07:09:12;2.97;;;2.77;;
50012;SDS011;35901;48.694;9.476;2023-04-29T07:11:38;3.80;;;3.50;;
50012;SDS011;35901;48.694;9.476;2023-04-29T07:14:05;3.57;;;3.37;;
50012;SDS011;35901;48.694;9.476;2023-04-29T07:16:31;2.93;;;2.80;;
50012;SDS011;35901;48.694;9.476;2023-04-29T07:18:57;3.90;;;3.60;;
50012;SDS011;35901;48.694;9.476;2023-04-29T07:21:23;3.50;;;3.30;;
50012;SDS011;35901;48.694;9.476;2023-04-29T07:23:49;3.43;;;3.23;;
50012;SDS011;35901;48.694;9.476;2023-04-29T07:26:15;3.50;;;3.20;;
50012;SDS011;35901;48.694;9.476;2023-04-29T07:28:46;3.90;;;3.50;;
50012;SDS011;35901;48.694;9.476;2023-04-29T07:31:13;4.53;;;3.63;;
50012;SDS011;35901;48.694;9.476;2023-04-29T07:33:39;3.47;;;3.17;;
50012;SDS011;35901;48.694;9.476;2023-04-29T07:36:05;4.63;;;3.97;;
50012;SDS011;35901;48.694;9.476;2023-04-29T07:38:32;3.50;;;3.30;;
50012;SDS011;35901;48.694;9.476;2023-04-29T07:40:58;3.63;;;3.43;;
50012;SDS011;35901;48.694;9.476;2023-04-29T07:43:24;3.50;;;3.20;;
50012;SDS011;35901;48.694;9.476;2023-04-29T07:45:50;3.00;;;2.80;;
50012;SDS011;35901;48.694;9.476;2023-04-29T07:48:16;2.90;;;2.70;;
50012;SDS011;35901;48.694;9.476;2023-04-29T07:50:41;2.70;;;2.50;;
50012;SDS011;35901;48.694;9.476;2023-04-29T07:53:08;2.50;;;2.13;;
50012;SDS011;35901;48.694;9.476;2023-04-29T07:55:36;2.50;;;2.30;;
50012;SDS011;35901;48.694;9.476;2023-04-29T07:58:02;2.60;;;2.40;;
50012;SDS011;35901;48.694;9.476;2023-04-29T08:00:28;3.30;;;2.53;;
50012;SDS011;35901;48.694;9.476;2023-04-29T08:02:54;3.00;;;2.80;;
50012;SDS011;35901;48.694;9.476;2023-04-29T08:05:23;3.47;;;2.90;;
50012;SDS011;35901;48.694;9.476;2023-04-29T08:07:49;3.17;;;2.97;;
50012;SDS011;35901;48.694;9.476;2023-04-29T08:10:16;3.27;;;2.90;;
50012;SDS011;35901;48.694;9.476;2023-04-29T08:12:45;2.73;;;2.53;;
50012;SDS011;35901;48.694;9.476;2023-04-29T08:15:12;3.13;;;2.90;;
50012;SDS011;35901;48.694;9.476;2023-04-29T08:17:38;2.83;;;2.63;;
50012;SDS011;35901;48.694;9.476;2023-04-29T08:20:03;3.03;;;2.70;;
50012;SDS011;35901;48.694;9.476;2023-04-29T08:22:29;3.03;;;2.73;;
50012;SDS011;35901;48.694;9.476;2023-04-29T08:24:55;2.93;;;2.73;;
50012;SDS011;35901;48.694;9.476;2023-04-29T08:27:21;3.27;;;2.80;;
50012;SDS011;35901;48.694;9.476;2023-04-29T08:29:47;3.60;;;3.30;;
50012;SDS011;35901;48.694;9.476;2023-04-29T08:32:12;2.13;;;2.00;;
50012;SDS011;35901;48.694;9.476;2023-04-29T08:34:38;2.03;;;1.93;;
50012;SDS011;35901;48.694;9.476;2023-04-29T08:37:05;2.17;;;1.80;;
50012;SDS011;35901;48.694;9.476;2023-04-29T08:39:31;2.13;;;1.93;;
50012;SDS011;35901;48.694;9.476;2023-04-29T08:41:57;1.90;;;1.80;;
50012;SDS011;35901;48.694;9.476;2023-04-29T08:44:24;2.37;;;1.90;;
50012;SDS011;35901;48.694;9.476;2023-04-29T08:46:50;2.93;;;2.73;;
50012;SDS011;35901;48.694;9.476;2023-04-29T08:49:16;2.77;;;2.53;;
50012;SDS011;35901;48.694;9.476;2023-04-29T08:51:42;1.70;;;1.60;;
50012;SDS011;35901;48.694;9.476;2023-04-29T08:54:09;1.77;;;1.67;;
50012;SDS011;35901;48.694;9.476;2023-04-29T08:56:35;1.60;;;1.50;;
50012;SDS011;35901;48.694;9.476;2023-04-29T08:59:02;2.03;;;1.60;;
50012;SDS011;35901;48.694;9.476;2023-04-29T09:01:29;1.60;;;1.50;;
50012;SDS011;35901;48.694;9.476;2023-04-29T09:06:36;2.73;;;1.87;;
50012;SDS011;35901;48.694;9.476;2023-04-29T09:09:02;1.87;;;1.77;;
50012;SDS011;35901;48.694;9.476;2023-04-29T09:11:28;1.70;;;1.60;;
50012;SDS011;35901;48.694;9.476;2023-04-29T09:13:59;1.60;;;1.50;;
50012;SDS011;35901;48.694;9.476;2023-04-29T09:16:26;1.37;;;1.30;;
50012;SDS011;35901;48.694;9.476;2023-04-29T09:18:53;1.30;;;1.30;;
50012;SDS011;35901;48.694;9.476;2023-04-29T09:21:20;2.40;;;1.50;;
50012;SDS011;35901;48.694;9.476;2023-04-29T09:23:50;1.40;;;1.30;;
50012;SDS011;35901;48.694;9.476;2023-04-29T09:26:20;1.60;;;1.50;;
50012;SDS011;35901;48.694;9.476;2023-04-29T09:28:47;1.30;;;1.20;;
50012;SDS011;35901;48.694;9.476;2023-04-29T09:31:30;1.50;;;1.40;;
50012;SDS011;35901;48.694;9.476;2023-04-29T09:33:56;1.23;;;1.13;;
50012;SDS011;35901;48.694;9.476;2023-04-29T09:39:21;1.73;;;1.63;;
50012;SDS011;35901;48.694;9.476;2023-04-29T09:44:20;1.30;;;1.20;;
50012;SDS011;35901;48.694;9.476;2023-04-29T09:49:27;1.70;;;1.60;;
50012;SDS011;35901;48.694;9.476;2023-04-29T09:51:59;1.67;;;1.57;;
50012;SDS011;35901;48.694;9.476;2023-04-29T09:54:27;2.00;;;1.50;;
50012;SDS011;35901;48.694;9.476;2023-04-29T09:56:54;1.33;;;1.30;;
50012;SDS011;35901;48.694;9.476;2023-04-29T09:59:21;2.50;;;1.80;;
50012;SDS011;35901;48.694;9.476;2023-04-29T10:01:48;1.60;;;1.50;;
50012;SDS011;35901;48.694;9.476;2023-04-29T10:04:24;1.60;;;1.50;;
50012;SDS011;35901;48.694;9.476;2023-04-29T10:06:52;2.00;;;1.70;;
50012;SDS011;35901;48.694;9.476;2023-04-29T10:09:19;1.40;;;1.40;;
50012;SDS011;35901;48.694;9.476;2023-04-29T10:11:47;7.70;;;1.70;;
50012;SDS011;35901;48.694;9.476;2023-04-29T10:14:15;1.90;;;1.80;;
50012;SDS011;35901;48.694;9.476;2023-04-29T10:19:14;1.70;;;1.60;;
50012;SDS011;35901;48.694;9.476;2023-04-29T10:21:43;1.73;;;1.50;;
50012;SDS011;35901;48.694;9.476;2023-04-29T10:24:09;1.60;;;1.50;;
50012;SDS011;35901;48.694;9.476;2023-04-29T10:26:37;1.60;;;1.50;;
50012;SDS011;35901;48.694;9.476;2023-04-29T10:29:04;1.40;;;1.40;;
50012;SDS011;35901;48.694;9.476;2023-04-29T10:31:32;1.97;;;1.63;;
50012;SDS011;35901;48.694;9.476;2023-04-29T10:33:59;1.50;;;1.40;;
50012;SDS011;35901;48.694;9.476;2023-04-29T10:36:26;1.73;;;1.40;;
50012;SDS011;35901;48.694;9.476;2023-04-29T10:38:55;1.30;;;1.20;;
50012;SDS011;35901;48.694;9.476;2023-04-29T10:41:27;1.40;;;1.40;;
50012;SDS011;35901;48.694;9.476;2023-04-29T10:43:57;2.13;;;1.30;;
50012;SDS011;35901;48.694;9.476;2023-04-29T10:46:24;2.20;;;1.37;;
50012;SDS011;35901;48.694;9.476;2023-04-29T10:48:55;1.50;;;1.40;;
50012;SDS011;35901;48.694;9.476;2023-04-29T10:51:32;2.30;;;1.40;;
50012;SDS011;35901;48.694;9.476;2023-04-29T10:54:09;1.60;;;1.50;;
50012;SDS011;35901;48.694;9.476;2023-04-29T10:56:41;2.20;;;1.50;;
50012;SDS011;35901;48.694;9.476;2023-04-29T10:59:12;1.80;;;1.70;;
50012;SDS011;35901;48.694;9.476;2023-04-29T11:04:16;1.80;;;1.70;;
50012;SDS011;35901;48.694;9.476;2023-04-29T11:06:44;1.67;;;1.57;;
50012;SDS011;35901;48.694;9.476;2023-04-29T11:12:02;1.57;;;1.47;;
50012;SDS011;35901;48.694;9.476;2023-04-29T11:17:15;1.50;;;1.40;;
50012;SDS011;35901;48.694;9.476;2023-04-29T11:19:42;2.70;;;1.53;;
50012;SDS011;35901;48.694;9.476;2023-04-29T11:27:30;1.70;;;1.60;;
50012;SDS011;35901;48.694;9.476;2023-04-29T11:29:57;2.07;;;1.50;;
50012;SDS011;35901;48.694;9.476;2023-04-29T11:32:24;2.03;;;1.40;;
50012;SDS011;35901;48.694;9.476;2023-04-29T11:34:55;1.70;;;1.60;;
50012;SDS011;35901;48.694;9.476;2023-04-29T11:37:36;1.50;;;1.37;;
50012;SDS011;35901;48.694;9.476;2023-04-29T11:40:02;1.50;;;1.40;;
50012;SDS011;35901;48.694;9.476;2023-04-29T11:42:29;1.73;;;1.63;;
50012;SDS011;35901;48.694;9.476;2023-04-29T11:44:59;1.80;;;1.70;;
50012;SDS011;35901;48.694;9.476;2023-04-29T11:47:28;1.83;;;1.73;;
50012;SDS011;35901;48.694;9.476;2023-04-29T11:50:01;2.30;;;1.90;;
50012;SDS011;35901;48.694;9.476;2023-04-29T11:52:28;2.17;;;2.00;;
50012;SDS011;35901;48.694;9.476;2023-04-29T11:54:56;1.93;;;1.83;;
50012;SDS011;35901;48.694;9.476;2023-04-29T11:57:22;1.97;;;1.87;;
50012;SDS011;35901;48.694;9.476;2023-04-29T11:59:48;1.70;;;1.60;;
50012;SDS011;35901;48.694;9.476;2023-04-29T12:02:14;1.57;;;1.47;;
50012;SDS011;35901;48.694;9.476;2023-04-29T12:04:44;1.70;;;1.60;;
50012;SDS011;35901;48.694;9.476;2023-04-29T12:07:12;2.23;;;1.70;;
50012;SDS011;35901;48.694;9.476;2023-04-29T12:09:45;1.80;;;1.70;;
50012;SDS011;35901;48.694;9.476;2023-04-29T12:12:12;2.33;;;2.17;;
50012;SDS011;35901;48.694;9.476;2023-04-29T12:14:38;1.60;;;1.50;;
50012;SDS011;35901;48.694;9.476;2023-04-29T12:17:05;1.63;;;1.53;;
50012;SDS011;35901;48.694;9.476;2023-04-29T12:19:31;1.93;;;1.63;;
50012;SDS011;35901;48.694;9.476;2023-04-29T12:21:58;1.60;;;1.50;;
50012;SDS011;35901;48.694;9.476;2023-04-29T12:24:24;1.87;;;1.73;;
50012;SDS011;35901;48.694;9.476;2023-04-29T12:26:50;1.57;;;1.50;;
50012;SDS011;35901;48.694;9.476;2023-04-29T12:29:19;2.00;;;1.90;;
50012;SDS011;35901;48.694;9.476;2023-04-29T12:31:48;2.33;;;1.77;;
50012;SDS011;35901;48.694;9.476;2023-04-29T12:34:15;1.90;;;1.80;;
50012;SDS011;35901;48.694;9.476;2023-04-29T12:36:41;2.20;;;2.00;;
50012;SDS011;35901;48.694;9.476;2023-04-29T12:39:12;2.20;;;1.80;;
50012;SDS011;35901;48.694;9.476;2023-04-29T12:41:38;2.00;;;1.90;;
50012;SDS011;35901;48.694;9.476;2023-04-29T12:44:05;2.10;;;2.00;;
50012;SDS011;35901;48.694;9.476;2023-04-29T12:46:37;1.80;;;1.70;;
50012;SDS011;35901;48.694;9.476;2023-04-29T12:49:05;2.73;;;2.50;;
50012;SDS011;35901;48.694;9.476;2023-04-29T12:51:32;3.17;;;2.27;;
50012;SDS011;35901;48.694;9.476;2023-04-29T12:54:00;3.30;;;2.30;;
50012;SDS011;35901;48.694;9.476;2023-04-29T12:56:34;2.40;;;2.20;;
50012;SDS011;35901;48.694;9.476;2023-04-29T12:59:14;3.60;;;2.60;;
50012;SDS011;35901;48.694;9.476;2023-04-29T13:01:41;2.00;;;1.90;;
50012;SDS011;35901;48.694;9.476;2023-04-29T13:04:07;2.30;;;2.20;;
50012;SDS011;35901;48.694;9.476;2023-04-29T13:06:34;2.80;;;2.60;;
50012;SDS011;35901;48.694;9.476;2023-04-29T13:09:04;2.90;;;2.60;;
50012;SDS011;35901;48.694;9.476;2023-04-29T13:11:31;2.40;;;2.20;;
50012;SDS011;35901;48.694;9.476;2023-04-29T13:13:56;2.73;;;2.50;;
50012;SDS011;35901;48.694;9.476;2023-04-29T13:16:22;2.60;;;2.40;;
50012;SDS011;35901;48.694;9.476;2023-04-29T13:18:48;2.80;;;2.60;;
50012;SDS011;35901;48.694;9.476;2023-04-29T13:21:14;3.63;;;2.80;;
50012;SDS011;35901;48.694;9.476;2023-04-29T13:23:40;4.13;;;3.03;;
50012;SDS011;35901;48.694;9.476;2023-04-29T13:26:06;4.57;;;2.93;;
50012;SDS011;35901;48.694;9.476;2023-04-29T13:28:33;3.00;;;2.60;;
50012;SDS011;35901;48.694;9.476;2023-04-29T13:30:59;2.77;;;2.60;;
50012;SDS011;35901;48.694;9.476;2023-04-29T13:33:24;2.90;;;2.17;;
50012;SDS011;35901;48.694;9.476;2023-04-29T13:35:50;2.20;;;2.10;;
50012;SDS011;35901;48.694;9.476;2023-04-29T13:38:16;2.57;;;2.37;;
50012;SDS011;35901;48.694;9.476;2023-04-29T13:40:42;2.90;;;2.40;;
50012;SDS011;35901;48.694;9.476;2023-04-29T13:43:08;2.60;;;2.40;;
50012;SDS011;35901;48.694;9.476;2023-04-29T13:45:33;2.70;;;2.47;;
50012;SDS011;35901;48.694;9.476;2023-04-29T13:48:02;5.10;;;3.10;;
50012;SDS011;35901;48.694;9.476;2023-04-29T13:50:28;4.03;;;3.00;;
50012;SDS011;35901;48.694;9.476;2023-04-29T13:52:54;3.53;;;3.23;;
50012;SDS011;35901;48.694;9.476;2023-04-29T13:55:20;4.13;;;3.20;;
50012;SDS011;35901;48.694;9.476;2023-04-29T13:57:46;3.57;;;3.27;;
50012;SDS011;35901;48.694;9.476;2023-04-29T14:00:12;7.10;;;4.17;;
50012;SDS011;35901;48.694;9.476;2023-04-29T14:02:38;3.40;;;3.10;;
50012;SDS011;35901;48.694;9.476;2023-04-29T14:05:04;3.43;;;3.13;;
50012;SDS011;35901;48.694;9.476;2023-04-29T14:07:30;4.20;;;3.90;;
50012;SDS011;35901;48.694;9.476;2023-04-29T14:09:56;3.40;;;3.13;;
50012;SDS011;35901;48.694;9.476;2023-04-29T14:12:21;4.00;;;3.70;;
50012;SDS011;35901;48.694;9.476;2023-04-29T14:14:47;3.40;;;3.13;;
50012;SDS011;35901;48.694;9.476;2023-04-29T14:17:13;3.50;;;3.30;;
50012;SDS011;35901;48.694;9.476;2023-04-29T14:19:38;3.43;;;3.23;;
50012;SDS011;35901;48.694;9.476;2023-04-29T14:22:04;4.67;;;4.27;;
50012;SDS011;35901;48.694;9.476;2023-04-29T14:24:29;5.10;;;4.70;;
50012;SDS011;35901;48.694;9.476;2023-04-29T14:26:55;5.57;;;5.07;;
50012;SDS011;35901;48.694;9.476;2023-04-29T14:29:21;7.90;;;5.00;;
50012;SDS011;35901;48.694;9.476;2023-04-29T14:31:47;5.10;;;4.70;;
50012;SDS011;35901;48.694;9.476;2023-04-29T14:34:13;4.37;;;4.07;;
50012;SDS011;35901;48.694;9.476;2023-04-29T14:36:39;4.53;;;4.17;;
50012;SDS011;35901;48.694;9.476;2023-04-29T14:39:05;4.50;;;4.10;;
50012;SDS011;35901;48.694;9.476;2023-04-29T14:41:30;4.40;;;4.00;;
50012;SDS011;35901;48.694;9.476;2023-04-29T14:43:56;6.00;;;4.97;;
50012;SDS011;35901;48.694;9.476;2023-04-29T14:46:22;4.93;;;4.53;;
50012;SDS011;35901;48.694;9.476;2023-04-29T14:48:48;5.50;;;5.00;;
50012;SDS011;35901;48.694;9.476;2023-04-29T14:51:13;4.77;;;4.33;;
50012;SDS011;35901;48.694;9.476;2023-04-29T14:53:39;5.40;;;4.67;;
50012;SDS011;35901;48.694;9.476;2023-04-29T14:56:05;4.80;;;4.30;;
50012;SDS011;35901;48.694;9.476;2023-04-29T14:58:31;4.53;;;4.13;;
50012;SDS011;35901;48.694;9.476;2023-04-29T15:00:56;4.70;;;4.30;;
50012;SDS011;35901;48.694;9.476;2023-04-29T15:03:22;4.63;;;4.20;;
50012;SDS011;35901;48.694;9.476;2023-04-29T15:05:48;4.47;;;4.07;;
50012;SDS011;35901;48.694;9.476;2023-04-29T15:08:16;4.87;;;4.37;;
50012;SDS011;35901;48.694;9.476;2023-04-29T15:10:42;5.10;;;4.60;;
50012;SDS011;35901;48.694;9.476;2023-04-29T15:13:10;4.27;;;3.87;;
50012;SDS011;35901;48.694;9.476;2023-04-29T15:15:36;4.37;;;4.03;;
50012;SDS011;35901;48.694;9.476;2023-04-29T15:18:02;4.70;;;4.27;;
50012;SDS011;35901;48.694;9.476;2023-04-29T15:20:30;4.93;;;4.17;;
50012;SDS011;35901;48.694;9.476;2023-04-29T15:22:56;4.20;;;3.90;;
50012;SDS011;35901;48.694;9.476;2023-04-29T15:25:22;6.00;;;4.00;;
50012;SDS011;35901;48.694;9.476;2023-04-29T15:27:48;4.83;;;4.37;;